createdAt,value
2019-06-10T00:02:03.741Z,18.03
2019-06-10T00:04:50.800Z,18.05
2019-06-10T00:07:37.458Z,18.02
2019-06-10T00:10:25.484Z,18.02
2019-06-10T00:13:12.968Z,18.02
2019-06-10T00:16:02.694Z,18.05
2019-06-10T00:18:50.852Z,18.03
2019-06-10T00:21:36.505Z,18.06
2019-06-10T00:24:24.189Z,18.05
2019-06-10T00:27:12.104Z,18.03
2019-06-10T00:30:02.857Z,18.05
2019-06-10T00:32:47.524Z,18.05
2019-06-10T00:35:34.807Z,18.03
2019-06-10T00:38:22.353Z,18.02
2019-06-10T00:41:13.684Z,18.00
2019-06-10T00:44:00.850Z,17.98
2019-06-10T00:46:46.128Z,17.97
2019-06-10T00:49:33.688Z,17.95
2019-06-10T00:52:21.921Z,17.94
2019-06-10T00:55:10.004Z,17.94
2019-06-10T00:57:56.513Z,17.96
2019-06-10T01:00:44.810Z,17.94
2019-06-10T01:03:32.782Z,17.92
2019-06-10T01:06:21.445Z,17.90
2019-06-10T01:09:11.453Z,17.86
2019-06-10T01:11:56.786Z,17.83
2019-06-10T01:14:44.314Z,17.83
2019-06-10T01:17:32.040Z,17.82
2019-06-10T01:20:21.044Z,17.82
2019-06-10T01:23:07.329Z,17.83
2019-06-10T01:25:55.434Z,17.83
2019-06-10T01:28:42.881Z,17.83
2019-06-10T01:31:31.703Z,17.81
2019-06-10T01:34:18.422Z,17.81
2019-06-10T01:37:06.776Z,17.80
2019-06-10T01:39:53.896Z,17.80
2019-06-10T01:42:41.438Z,17.79
2019-06-10T01:45:31.109Z,17.81
2019-06-10T01:48:16.700Z,17.79
2019-06-10T01:51:03.620Z,17.79
2019-06-10T01:53:51.766Z,17.78
2019-06-10T01:56:40.898Z,17.75
2019-06-10T01:59:26.644Z,17.75
2019-06-10T02:02:17.749Z,17.74
2019-06-10T02:05:04.636Z,17.72
2019-06-10T02:07:52.604Z,17.69
2019-06-10T02:10:41.504Z,17.68
2019-06-10T02:13:33.459Z,17.67
2019-06-10T02:16:23.394Z,17.66
2019-06-10T02:19:07.391Z,17.66
2019-06-10T02:21:54.928Z,17.62
2019-06-10T02:24:42.850Z,17.59
2019-06-10T02:27:31.444Z,17.56
2019-06-10T02:30:35.041Z,17.54
2019-06-10T02:33:06.418Z,17.50
2019-06-10T02:35:54.129Z,17.48
2019-06-10T02:38:44.490Z,17.42
2019-06-10T02:41:35.381Z,17.39
2019-06-10T02:44:21.788Z,17.34
2019-06-10T02:47:04.420Z,17.31
2019-06-10T02:49:59.092Z,17.23
2019-06-10T02:52:39.693Z,17.19
2019-06-10T02:55:30.905Z,17.17
2019-06-10T02:58:15.676Z,17.10
2019-06-10T03:01:04.200Z,17.09
2019-06-10T03:03:53.923Z,17.03
2019-06-10T03:06:40.146Z,17.02
2019-06-10T03:09:29.388Z,16.98
2019-06-10T03:12:13.752Z,16.95
2019-06-10T03:15:02.105Z,16.95
2019-06-10T03:17:48.846Z,16.97
2019-06-10T03:20:36.170Z,16.93
2019-06-10T03:23:26.433Z,16.91
2019-06-10T03:26:12.392Z,16.90
2019-06-10T03:28:58.435Z,16.94
2019-06-10T03:31:48.059Z,16.98
2019-06-10T03:34:41.232Z,17.04
2019-06-10T03:37:23.292Z,17.09
2019-06-10T03:40:08.538Z,17.14
2019-06-10T03:42:55.753Z,17.18
2019-06-10T03:45:43.123Z,17.20
2019-06-10T03:48:32.789Z,17.23
2019-06-10T03:51:19.218Z,17.25
2019-06-10T03:54:05.909Z,17.29
2019-06-10T03:56:53.438Z,17.33
2019-06-10T03:59:42.229Z,17.38
2019-06-10T04:02:28.702Z,17.39
2019-06-10T04:05:17.376Z,17.41
2019-06-10T04:08:03.246Z,17.40
2019-06-10T04:10:52.102Z,17.44
2019-06-10T04:13:37.916Z,17.46
2019-06-10T04:16:26.680Z,17.53
2019-06-10T04:19:13.089Z,17.58
2019-06-10T04:21:59.823Z,17.62
2019-06-10T04:24:47.133Z,17.66
2019-06-10T04:27:34.506Z,17.71
2019-06-10T04:30:24.258Z,17.80
2019-06-10T04:33:10.095Z,17.86
2019-06-10T04:35:57.501Z,17.92
2019-06-10T04:38:44.995Z,17.96
2019-06-10T04:41:32.983Z,18.02
2019-06-10T04:44:22.886Z,18.09
2019-06-10T04:47:07.803Z,18.16
2019-06-10T04:49:55.176Z,18.23
2019-06-10T04:52:43.081Z,18.30
2019-06-10T04:55:32.486Z,18.35
2019-06-10T04:58:19.397Z,18.42
2019-06-10T05:01:04.944Z,18.49
2019-06-10T05:03:53.023Z,18.54
2019-06-10T05:06:42.188Z,18.58
2019-06-10T05:09:29.434Z,18.67
2019-06-10T05:12:16.594Z,18.79
2019-06-10T05:15:04.110Z,18.96
2019-06-10T05:17:52.686Z,19.12
2019-06-10T05:20:52.075Z,19.31
2019-06-10T05:23:26.465Z,19.47
2019-06-10T05:26:13.655Z,19.66
2019-06-10T05:29:03.156Z,19.81
2019-06-10T05:31:52.161Z,19.91
2019-06-10T05:34:37.270Z,20.01
2019-06-10T05:37:26.333Z,20.10
2019-06-10T05:40:12.893Z,20.12
2019-06-10T05:43:02.422Z,20.09
2019-06-10T05:45:48.081Z,20.14
2019-06-10T05:48:35.653Z,20.25
2019-06-10T05:51:25.811Z,20.37
2019-06-10T05:54:13.062Z,20.50
2019-06-10T05:57:02.560Z,20.65
2019-06-10T05:59:48.553Z,20.86
2019-06-10T06:02:35.753Z,21.02
2019-06-10T06:05:23.901Z,21.16
2019-06-10T06:08:12.583Z,21.35
2019-06-10T06:10:58.113Z,21.69
2019-06-10T06:13:45.321Z,21.93
2019-06-10T06:16:36.303Z,21.96
2019-06-10T06:19:23.687Z,21.81
2019-06-10T06:22:12.967Z,21.65
2019-06-10T06:24:58.965Z,21.62
2019-06-10T06:27:46.372Z,21.60
2019-06-10T06:30:36.133Z,21.64
2019-06-10T06:33:22.171Z,21.65
2019-06-10T06:36:12.326Z,21.69
2019-06-10T06:38:57.483Z,21.71
2019-06-10T06:41:45.364Z,21.72
2019-06-10T06:44:35.897Z,21.68
2019-06-10T06:47:22.405Z,21.67
2019-06-10T06:50:07.746Z,21.59
2019-06-10T06:53:23.391Z,21.51
2019-06-10T06:55:43.604Z,21.40
2019-06-10T06:58:33.462Z,21.36
2019-06-10T07:01:22.591Z,21.34
2019-06-10T07:04:07.451Z,21.39
2019-06-10T07:06:55.658Z,21.46
2019-06-10T07:09:43.358Z,21.53
2019-06-10T07:12:33.364Z,21.51
2019-06-10T07:15:18.941Z,21.54
2019-06-10T07:18:06.387Z,21.63
2019-06-10T07:20:54.166Z,21.72
2019-06-10T07:23:45.560Z,21.82
2019-06-10T07:26:34.127Z,21.85
2019-06-10T07:29:19.322Z,21.82
2019-06-10T07:32:06.735Z,21.85
2019-06-10T07:34:54.485Z,22.09
2019-06-10T07:37:44.520Z,22.38
2019-06-10T07:40:29.523Z,22.55
2019-06-10T07:43:16.920Z,22.66
2019-06-10T07:46:04.822Z,22.84
2019-06-10T07:48:56.371Z,23.08
2019-06-10T07:51:39.807Z,23.27
2019-06-10T07:54:27.844Z,23.54
2019-06-10T07:57:15.048Z,23.68
2019-06-10T08:00:03.154Z,23.57
2019-06-10T08:02:49.749Z,23.33
2019-06-10T08:05:37.753Z,23.28
2019-06-10T08:08:24.758Z,23.30
2019-06-10T08:11:13.640Z,23.30
2019-06-10T08:14:04.361Z,23.47
2019-06-10T08:16:48.659Z,23.61
2019-06-10T08:19:40.038Z,23.64
2019-06-10T08:22:34.238Z,23.25
2019-06-10T08:25:12.442Z,23.14
2019-06-10T08:27:58.684Z,23.00
2019-06-10T08:30:46.223Z,23.38
2019-06-10T08:33:33.785Z,23.66
2019-06-10T08:36:22.390Z,24.11
2019-06-10T08:39:11.935Z,24.10
2019-06-10T08:41:55.920Z,23.85
2019-06-10T08:44:44.025Z,23.69
2019-06-10T08:47:32.655Z,24.21
2019-06-10T08:50:22.243Z,24.72
2019-06-10T08:53:14.405Z,25.14
2019-06-10T08:55:54.692Z,25.50
2019-06-10T08:58:47.386Z,25.76
2019-06-10T09:01:29.767Z,25.97
2019-06-10T09:04:17.279Z,26.24
2019-06-10T09:07:05.298Z,26.52
2019-06-10T09:09:54.013Z,26.84
2019-06-10T09:12:41.262Z,27.01
2019-06-10T09:15:27.654Z,27.02
2019-06-10T09:18:19.702Z,26.99
2019-06-10T09:21:03.274Z,26.85
2019-06-10T09:23:58.554Z,26.54
2019-06-10T09:26:39.925Z,26.71
2019-06-10T09:29:26.030Z,27.09
2019-06-10T09:32:13.488Z,27.49
2019-06-10T09:35:03.454Z,27.79
2019-06-10T09:37:51.588Z,27.98
2019-06-10T09:40:59.002Z,28.29
2019-06-10T09:43:37.934Z,28.57
2019-06-10T09:46:25.348Z,28.71
2019-06-10T09:49:13.505Z,28.67
2019-06-10T09:52:03.470Z,28.51
2019-06-10T09:54:53.606Z,28.36
2019-06-10T09:57:36.518Z,28.49
2019-06-10T10:00:37.895Z,28.71
2019-06-10T10:03:25.103Z,28.81
2019-06-10T10:06:15.807Z,29.01
2019-06-10T10:09:03.459Z,29.21
2019-06-10T10:11:50.614Z,29.30
2019-06-10T10:14:36.957Z,29.10
2019-06-10T10:17:24.385Z,28.70
2019-06-10T10:20:12.331Z,28.98
2019-06-10T10:22:59.179Z,29.29
2019-06-10T10:25:48.243Z,29.50
2019-06-10T10:28:34.748Z,29.83
2019-06-10T10:31:23.365Z,30.13
2019-06-10T10:34:09.930Z,30.43
2019-06-10T10:36:57.518Z,30.66
2019-06-10T10:39:45.215Z,30.75
2019-06-10T10:42:42.744Z,30.83
2019-06-10T10:45:22.533Z,31.05
2019-06-10T10:48:08.141Z,31.13
2019-06-10T10:50:56.208Z,31.56
2019-06-10T10:53:46.536Z,31.67
2019-06-10T10:56:33.394Z,31.93
2019-06-10T10:59:19.009Z,32.09
2019-06-10T11:02:06.337Z,32.18
2019-06-10T11:04:56.831Z,32.19
2019-06-10T11:07:42.277Z,31.62
2019-06-10T11:10:28.879Z,30.86
2019-06-10T11:13:16.425Z,30.40
2019-06-10T11:16:03.708Z,30.75
2019-06-10T11:18:53.790Z,31.36
2019-06-10T11:21:38.852Z,31.96
2019-06-10T11:24:36.453Z,32.13
2019-06-10T11:27:14.407Z,32.34
2019-06-10T11:30:02.554Z,32.71
2019-06-10T11:32:53.535Z,32.87
2019-06-10T11:35:38.206Z,33.10
2019-06-10T11:38:25.579Z,33.11
2019-06-10T11:41:13.754Z,33.30
2019-06-10T11:44:00.869Z,33.54
2019-06-10T11:46:48.623Z,33.69
2019-06-10T11:49:36.296Z,33.57
2019-06-10T11:52:23.618Z,33.31
2019-06-10T11:55:18.292Z,32.77
2019-06-10T11:57:59.362Z,32.83
2019-06-10T12:00:46.749Z,33.05
2019-06-10T12:03:34.316Z,33.77
2019-06-10T12:06:22.840Z,34.35
2019-06-10T12:09:09.374Z,34.95
2019-06-10T12:12:01.283Z,35.35
2019-06-10T12:14:44.237Z,35.26
2019-06-10T12:17:45.595Z,35.29
2019-06-10T12:20:19.291Z,35.41
2019-06-10T12:23:06.619Z,35.15
2019-06-10T12:25:56.708Z,34.30
2019-06-10T12:28:43.236Z,33.53
2019-06-10T12:31:30.324Z,33.24
2019-06-10T12:34:17.774Z,33.51
2019-06-10T12:37:11.369Z,33.26
2019-06-10T12:39:56.569Z,32.71
2019-06-10T12:42:41.573Z,32.36
2019-06-10T12:45:28.288Z,32.05
2019-06-10T12:48:15.673Z,31.80
2019-06-10T12:51:08.811Z,31.12
2019-06-10T12:53:51.464Z,30.87
2019-06-10T12:56:38.782Z,31.07
2019-06-10T12:59:27.086Z,31.13
2019-06-10T13:02:22.718Z,31.36
2019-06-10T13:05:05.679Z,31.62
2019-06-10T13:07:48.503Z,31.94
2019-06-10T13:10:37.851Z,32.33
2019-06-10T13:13:25.689Z,32.73
2019-06-10T13:16:14.170Z,33.29
2019-06-10T13:19:03.275Z,33.54
2019-06-10T13:21:48.488Z,33.81
2019-06-10T13:24:36.063Z,33.40
2019-06-10T13:27:23.335Z,33.03
2019-06-10T13:30:10.703Z,33.45
2019-06-10T13:33:00.095Z,33.86
2019-06-10T13:35:46.594Z,34.24
2019-06-10T13:38:33.979Z,33.70
2019-06-10T13:41:22.772Z,33.12
2019-06-10T13:44:08.764Z,32.96
2019-06-10T13:46:56.709Z,32.89
2019-06-10T13:49:44.074Z,32.65
2019-06-10T13:52:32.139Z,32.07
2019-06-10T13:55:18.943Z,31.62
2019-06-10T13:58:09.610Z,31.21
2019-06-10T14:00:54.160Z,30.94
2019-06-10T14:03:43.240Z,30.58
2019-06-10T14:06:42.713Z,30.13
2019-06-10T14:09:16.924Z,29.82
2019-06-10T14:12:04.101Z,29.64
2019-06-10T14:14:53.295Z,29.47
2019-06-10T14:17:38.686Z,29.33
2019-06-10T14:20:26.286Z,29.26
2019-06-10T14:23:17.440Z,29.20
2019-06-10T14:26:04.181Z,29.25
2019-06-10T14:28:48.781Z,29.35
2019-06-10T14:31:43.589Z,29.46
2019-06-10T14:34:23.966Z,29.90
2019-06-10T14:37:12.798Z,30.56
2019-06-10T14:39:58.787Z,30.72
2019-06-10T14:42:46.757Z,30.43
2019-06-10T14:45:34.208Z,30.12
2019-06-10T14:48:23.484Z,29.92
2019-06-10T14:51:12.410Z,29.73
2019-06-10T14:54:03.127Z,29.61
2019-06-10T14:56:56.369Z,29.60
2019-06-10T14:59:37.650Z,29.63
2019-06-10T15:02:25.583Z,29.70
2019-06-10T15:05:15.575Z,29.71
2019-06-10T15:08:03.168Z,29.65
2019-06-10T15:10:48.239Z,29.46
2019-06-10T15:13:36.256Z,29.22
2019-06-10T15:16:24.351Z,29.03
2019-06-10T15:19:19.711Z,28.65
2019-06-10T15:21:59.747Z,28.52
2019-06-10T15:24:47.300Z,28.45
2019-06-10T15:27:34.736Z,28.33
2019-06-10T15:30:27.135Z,28.22
2019-06-10T15:33:11.137Z,28.22
2019-06-10T15:35:57.460Z,28.41
2019-06-10T15:38:45.535Z,28.86
2019-06-10T15:41:33.010Z,29.38
2019-06-10T15:44:41.746Z,29.78
2019-06-10T15:47:07.811Z,30.05
2019-06-10T15:49:55.228Z,30.27
2019-06-10T15:52:43.139Z,30.31
2019-06-10T15:55:55.515Z,30.16
2019-06-10T15:58:19.866Z,29.90
2019-06-10T16:01:06.197Z,29.56
2019-06-10T16:03:53.593Z,29.08
2019-06-10T16:06:42.466Z,28.79
2019-06-10T16:09:29.378Z,28.63
2019-06-10T16:12:18.295Z,28.55
2019-06-10T16:15:04.562Z,28.47
2019-06-10T16:17:53.552Z,28.54
2019-06-10T16:20:42.746Z,28.72
2019-06-10T16:23:27.442Z,28.82
2019-06-10T16:26:16.136Z,28.84
2019-06-10T16:29:02.843Z,28.70
2019-06-10T16:31:52.752Z,28.53
2019-06-10T16:34:37.797Z,28.50
2019-06-10T16:37:25.789Z,28.36
2019-06-10T16:40:12.550Z,28.23
2019-06-10T16:43:00.563Z,28.04
2019-06-10T16:45:47.806Z,27.92
2019-06-10T16:48:35.270Z,27.72
2019-06-10T16:51:23.719Z,27.55
2019-06-10T16:54:10.118Z,27.37
2019-06-10T16:56:57.408Z,27.18
2019-06-10T16:59:44.847Z,26.91
2019-06-10T17:02:33.132Z,26.63
2019-06-10T17:05:21.270Z,26.37
2019-06-10T17:08:08.420Z,26.12
2019-06-10T17:10:56.610Z,25.89
2019-06-10T17:13:44.213Z,25.69
2019-06-10T17:16:32.158Z,25.53
2019-06-10T17:19:21.251Z,25.37
2019-06-10T17:22:07.710Z,25.25
2019-06-10T17:24:55.046Z,25.14
2019-06-10T17:27:43.015Z,25.07
2019-06-10T17:30:30.923Z,25.03
2019-06-10T17:33:20.415Z,25.07
2019-06-10T17:36:06.159Z,25.11
2019-06-10T17:38:54.132Z,25.11
2019-06-10T17:41:42.679Z,25.04
2019-06-10T17:44:30.725Z,24.99
2019-06-10T17:47:16.502Z,24.91
2019-06-10T17:50:05.503Z,24.79
2019-06-10T17:52:53.640Z,24.66
2019-06-10T17:55:40.863Z,24.51
2019-06-10T17:58:40.810Z,24.38
2019-06-10T18:01:15.935Z,24.27
2019-06-10T18:04:04.035Z,24.18
2019-06-10T18:06:52.885Z,24.11
2019-06-10T18:09:39.419Z,24.04
2019-06-10T18:12:27.913Z,23.98
2019-06-10T18:15:14.578Z,23.91
2019-06-10T18:18:03.504Z,23.86
2019-06-10T18:20:53.309Z,23.81
2019-06-10T18:23:37.471Z,23.78
2019-06-10T18:26:25.300Z,23.74
2019-06-10T18:29:12.978Z,23.72
2019-06-10T18:32:03.261Z,23.68
2019-06-10T18:34:48.645Z,23.64
2019-06-10T18:37:38.758Z,23.62
2019-06-10T18:40:24.153Z,23.60
2019-06-10T18:43:12.169Z,23.56
2019-06-10T18:45:59.583Z,23.54
2019-06-10T18:48:46.979Z,23.52
2019-06-10T18:51:37.016Z,23.52
2019-06-10T18:54:22.693Z,23.49
2019-06-10T18:57:09.855Z,23.47
2019-06-10T18:59:57.949Z,23.44
2019-06-10T19:02:45.721Z,23.39
2019-06-10T19:05:34.653Z,23.34
2019-06-10T19:08:22.342Z,23.26
2019-06-10T19:11:09.132Z,23.18
2019-06-10T19:13:59.844Z,23.12
2019-06-10T19:16:44.091Z,23.05
2019-06-10T19:19:31.843Z,22.99
2019-06-10T19:22:19.265Z,22.95
2019-06-10T19:25:07.277Z,22.92
2019-06-10T19:27:55.208Z,22.88
2019-06-10T19:30:44.863Z,22.83
2019-06-10T19:33:32.465Z,22.76
2019-06-10T19:36:17.899Z,22.71
2019-06-10T19:39:06.931Z,22.53
2019-06-10T19:41:54.502Z,22.44
2019-06-10T19:44:45.567Z,22.39
2019-06-10T19:47:32.586Z,22.34
2019-06-10T19:50:18.085Z,22.31
2019-06-10T19:53:05.522Z,22.30
2019-06-10T19:55:53.434Z,22.29
2019-06-10T19:58:43.424Z,22.24
2019-06-10T20:01:28.449Z,22.18
2019-06-10T20:04:18.178Z,22.15
2019-06-10T20:07:03.786Z,22.12
2019-06-10T20:09:52.234Z,22.10
2019-06-10T20:12:38.716Z,22.04
2019-06-10T20:15:26.125Z,21.95
2019-06-10T20:18:13.653Z,21.88
2019-06-10T20:21:02.692Z,21.83
2019-06-10T20:23:49.507Z,21.78
2019-06-10T20:26:36.798Z,21.78
2019-06-10T20:29:24.599Z,21.77
2019-06-10T20:32:12.209Z,21.75
2019-06-10T20:34:59.642Z,21.73
2019-06-10T20:37:47.371Z,21.71
2019-06-10T20:40:35.454Z,21.69
2019-06-10T20:43:22.649Z,21.67
2019-06-10T20:46:09.960Z,21.65
2019-06-10T20:48:57.240Z,21.62
2019-06-10T20:51:56.947Z,21.60
2019-06-10T20:54:32.396Z,21.57
2019-06-10T20:57:19.598Z,21.55
2019-06-10T21:00:19.779Z,21.53
2019-06-10T21:02:55.078Z,21.51
2019-06-10T21:05:43.702Z,21.50
2019-06-10T21:08:33.251Z,21.48
2019-06-10T21:11:18.773Z,21.47
2019-06-10T21:14:06.112Z,21.46
2019-06-10T21:16:53.753Z,21.45
2019-06-10T21:19:44.564Z,21.47
2019-06-10T21:22:29.003Z,21.52
2019-06-10T21:25:16.978Z,21.57
2019-06-10T21:28:04.346Z,21.61
2019-06-10T21:30:54.932Z,21.61
2019-06-10T21:33:44.382Z,21.59
2019-06-10T21:36:29.002Z,21.56
2019-06-10T21:39:16.401Z,21.52
2019-06-10T21:42:03.647Z,21.48
2019-06-10T21:44:52.099Z,21.42
2019-06-10T21:47:38.396Z,21.28
2019-06-10T21:50:26.056Z,21.23
2019-06-10T21:53:13.790Z,21.17
2019-06-10T21:56:01.182Z,21.08
2019-06-10T21:58:48.885Z,21.01
2019-06-10T22:01:36.302Z,20.93
2019-06-10T22:04:23.675Z,20.84
2019-06-10T22:07:11.720Z,20.75
2019-06-10T22:10:02.350Z,20.67
2019-06-10T22:12:48.032Z,20.61
2019-06-10T22:15:35.185Z,20.56
2019-06-10T22:18:23.022Z,20.50
2019-06-10T22:21:10.204Z,20.47
2019-06-10T22:23:57.726Z,20.43
2019-06-10T22:26:45.144Z,20.36
2019-06-10T22:29:32.569Z,20.32
2019-06-10T22:32:20.201Z,20.31
2019-06-10T22:35:08.356Z,20.30
2019-06-10T22:37:56.670Z,20.30
2019-06-10T22:40:44.062Z,20.28
2019-06-10T22:43:32.187Z,20.28
2019-06-10T22:46:18.689Z,20.25
2019-06-10T22:49:06.120Z,20.24
2019-06-10T22:51:56.623Z,20.22
2019-06-10T22:54:43.069Z,20.23
2019-06-10T22:57:28.650Z,20.21
2019-06-10T23:00:16.060Z,20.23
2019-06-10T23:03:04.052Z,20.25
2019-06-10T23:05:52.356Z,20.28
2019-06-10T23:08:38.847Z,20.29
2019-06-10T23:11:26.373Z,20.30
2019-06-10T23:14:13.850Z,20.28
2019-06-10T23:17:03.004Z,20.28
2019-06-10T23:19:49.428Z,20.23
2019-06-10T23:22:37.326Z,20.20
2019-06-10T23:25:24.865Z,20.15
2019-06-10T23:28:13.109Z,20.15
2019-06-10T23:31:00.518Z,20.13
2019-06-10T23:33:47.060Z,20.11
2019-06-10T23:36:34.678Z,20.14
2019-06-10T23:39:22.785Z,20.14
2019-06-10T23:42:12.169Z,20.16
2019-06-10T23:44:57.499Z,20.18
2019-06-10T23:47:44.880Z,20.18
2019-06-10T23:50:32.879Z,20.20
2019-06-10T23:53:20.244Z,20.16
2019-06-10T23:56:07.637Z,20.15
2019-06-10T23:58:56.968Z,20.13
